createdAt,value
2022-09-28T00:01:22.111Z,2.75
2022-09-28T00:03:51.087Z,2.90
2022-09-28T00:06:21.181Z,2.60
2022-09-28T00:08:50.395Z,2.67
2022-09-28T00:11:21.029Z,2.90
2022-09-28T00:13:53.753Z,3.50
2022-09-28T00:16:24.455Z,2.90
2022-09-28T00:18:52.601Z,2.75
2022-09-28T00:21:22.916Z,3.28
2022-09-28T00:24:13.657Z,2.78
2022-09-28T00:26:54.294Z,2.72
2022-09-28T00:29:25.269Z,2.70
2022-09-28T00:32:04.034Z,2.97
2022-09-28T00:34:41.562Z,3.20
2022-09-28T00:37:10.166Z,2.90
2022-09-28T00:39:38.764Z,3.00
2022-09-28T00:42:22.554Z,2.73
2022-09-28T00:44:54.214Z,2.90
2022-09-28T00:47:51.925Z,3.00
2022-09-28T00:50:35.542Z,2.97
2022-09-28T00:53:11.382Z,3.22
2022-09-28T00:55:46.201Z,2.53
2022-09-28T00:58:18.777Z,2.83
2022-09-28T01:00:46.435Z,2.85
2022-09-28T01:03:14.639Z,2.75
2022-09-28T01:05:42.285Z,2.85
2022-09-28T01:08:11.164Z,2.80
2022-09-28T01:10:41.055Z,2.60
2022-09-28T01:13:08.641Z,2.58
2022-09-28T01:15:43.981Z,2.83
2022-09-28T01:18:29.325Z,2.53
2022-09-28T01:21:25.798Z,2.50
2022-09-28T01:23:53.508Z,2.70
2022-09-28T01:26:29.575Z,3.00
2022-09-28T01:29:05.050Z,2.55
2022-09-28T01:31:36.904Z,3.10
2022-09-28T01:34:18.591Z,2.50
2022-09-28T01:36:53.332Z,3.28
2022-09-28T01:39:33.630Z,2.40
2022-09-28T01:42:06.124Z,2.55
2022-09-28T01:44:40.057Z,2.53
2022-09-28T01:47:14.148Z,2.20
2022-09-28T01:49:46.362Z,2.47
2022-09-28T01:52:25.733Z,1.98
2022-09-28T01:55:12.246Z,2.40
2022-09-28T01:57:46.076Z,2.22
2022-09-28T02:00:15.491Z,1.90
2022-09-28T02:02:59.084Z,2.45
2022-09-28T02:05:40.923Z,1.90
2022-09-28T02:08:10.429Z,1.85
2022-09-28T02:10:52.851Z,2.03
2022-09-28T02:13:41.065Z,2.00
2022-09-28T02:16:17.723Z,1.67
2022-09-28T02:18:47.494Z,2.00
2022-09-28T02:21:17.899Z,1.90
2022-09-28T02:24:21.347Z,1.58
2022-09-28T02:26:52.348Z,1.70
2022-09-28T02:29:19.728Z,1.80
2022-09-28T02:31:47.197Z,1.80
2022-09-28T02:34:14.798Z,1.70
2022-09-28T02:36:45.181Z,1.80
2022-09-28T02:39:18.105Z,1.70
2022-09-28T02:42:20.595Z,2.03
2022-09-28T02:45:09.583Z,1.92
2022-09-28T02:47:52.989Z,2.40
2022-09-28T02:50:33.593Z,2.00
2022-09-28T02:53:22.586Z,2.13
2022-09-28T02:56:27.232Z,1.85
2022-09-28T02:59:06.592Z,1.90
2022-09-28T03:02:15.508Z,1.70
2022-09-28T03:04:52.799Z,1.80
2022-09-28T03:07:32.263Z,2.00
2022-09-28T03:10:03.224Z,1.70
2022-09-28T03:12:31.783Z,1.67
2022-09-28T03:15:32.086Z,1.42
2022-09-28T03:18:00.932Z,1.60
2022-09-28T03:20:30.017Z,1.53
2022-09-28T03:23:23.436Z,1.50
2022-09-28T03:25:45.992Z,1.65
2022-09-28T03:28:13.343Z,1.30
2022-09-28T03:30:43.321Z,1.40
2022-09-28T03:33:10.841Z,1.97
2022-09-28T03:35:38.854Z,1.60
2022-09-28T03:38:06.531Z,1.58
2022-09-28T03:40:37.789Z,1.70
2022-09-28T03:43:05.472Z,1.60
2022-09-28T03:45:32.942Z,1.50
2022-09-28T03:48:00.509Z,1.50
2022-09-28T03:50:28.317Z,1.55
2022-09-28T03:52:55.660Z,1.98
2022-09-28T03:55:23.245Z,1.70
2022-09-28T03:57:55.979Z,1.33
2022-09-28T04:00:24.186Z,2.10
2022-09-28T04:02:51.713Z,1.45
2022-09-28T04:05:19.040Z,1.38
2022-09-28T04:07:46.566Z,1.90
2022-09-28T04:10:14.271Z,1.67
2022-09-28T04:12:41.852Z,1.85
2022-09-28T04:15:09.590Z,1.80
2022-09-28T04:17:40.126Z,1.40
2022-09-28T04:20:15.413Z,1.52
2022-09-28T04:23:00.503Z,1.90
2022-09-28T04:25:29.210Z,1.88
2022-09-28T04:28:15.511Z,1.80
2022-09-28T04:30:42.917Z,1.60
2022-09-28T04:33:10.385Z,1.30
2022-09-28T04:35:37.760Z,2.10
2022-09-28T04:38:05.326Z,1.60
2022-09-28T04:40:32.892Z,1.40
2022-09-28T04:43:00.318Z,1.90
2022-09-28T04:45:28.034Z,1.85
2022-09-28T04:48:01.154Z,2.00
2022-09-28T04:50:54.209Z,1.95
2022-09-28T04:53:23.488Z,1.90
2022-09-28T04:55:56.958Z,2.22
2022-09-28T04:58:24.343Z,2.00
2022-09-28T05:00:52.338Z,1.83
2022-09-28T05:03:39.725Z,1.63
2022-09-28T05:06:42.542Z,1.88
2022-09-28T05:09:10.100Z,1.52
2022-09-28T05:11:37.704Z,1.80
2022-09-28T05:14:12.572Z,1.63
2022-09-28T05:16:41.824Z,1.92
2022-09-28T05:19:30.597Z,1.73
2022-09-28T05:22:04.802Z,1.90
2022-09-28T05:24:38.749Z,2.42
2022-09-28T05:27:06.154Z,1.90
2022-09-28T05:29:33.508Z,2.05
2022-09-28T05:32:19.493Z,2.10
2022-09-28T05:35:09.193Z,1.73
2022-09-28T05:37:42.713Z,1.80
2022-09-28T05:40:11.041Z,1.90
2022-09-28T05:42:39.746Z,2.05
2022-09-28T05:45:07.704Z,1.90
2022-09-28T05:47:40.310Z,2.10
2022-09-28T05:50:12.048Z,1.60
2022-09-28T05:52:40.374Z,1.70
2022-09-28T05:55:09.375Z,1.92
2022-09-28T05:57:37.070Z,1.95
2022-09-28T06:00:10.723Z,2.10
2022-09-28T06:02:42.625Z,1.70
2022-09-28T06:05:13.411Z,1.87
2022-09-28T06:07:41.040Z,1.55
2022-09-28T06:10:08.877Z,1.60
2022-09-28T06:12:45.849Z,1.50
2022-09-28T06:15:16.183Z,1.50
2022-09-28T06:18:21.465Z,1.73
2022-09-28T06:21:08.565Z,1.38
2022-09-28T06:23:42.759Z,1.65
2022-09-28T06:26:13.880Z,1.60
2022-09-28T06:28:41.233Z,1.30
2022-09-28T06:31:09.464Z,1.53
2022-09-28T06:33:44.043Z,1.25
2022-09-28T06:36:11.593Z,1.48
2022-09-28T06:38:40.161Z,1.30
2022-09-28T06:41:07.635Z,1.30
2022-09-28T06:43:35.462Z,1.40
2022-09-28T06:46:21.710Z,1.20
2022-09-28T06:49:09.820Z,1.27
2022-09-28T06:51:55.602Z,1.25
2022-09-28T06:54:35.613Z,1.30
2022-09-28T06:57:12.383Z,1.47
2022-09-28T06:59:40.574Z,1.02
2022-09-28T07:02:14.775Z,1.52
2022-09-28T07:05:03.347Z,1.23
2022-09-28T07:07:42.775Z,1.40
2022-09-28T07:10:48.438Z,1.10
2022-09-28T07:16:27.472Z,1.20
2022-09-28T07:19:01.850Z,1.10
2022-09-28T07:21:30.827Z,1.30
2022-09-28T07:24:03.117Z,1.90
2022-09-28T07:26:51.292Z,1.30
2022-09-28T07:29:53.270Z,1.60
2022-09-28T07:32:37.690Z,1.20
2022-09-28T07:36:01.099Z,1.30
2022-09-28T07:38:30.375Z,1.50
2022-09-28T07:41:14.229Z,1.35
2022-09-28T07:43:48.625Z,1.73
2022-09-28T07:46:17.159Z,1.50
2022-09-28T07:48:55.458Z,1.50
2022-09-28T07:51:52.535Z,1.27
2022-09-28T07:54:29.123Z,1.40
2022-09-28T07:57:16.668Z,1.90
2022-09-28T08:00:02.806Z,1.55
2022-09-28T08:02:33.925Z,1.60
2022-09-28T08:05:02.609Z,1.63
2022-09-28T08:07:30.174Z,1.60
2022-09-28T08:10:03.609Z,1.60
2022-09-28T08:12:30.934Z,1.40
2022-09-28T08:15:10.576Z,1.60
2022-09-28T08:18:07.622Z,1.63
2022-09-28T08:20:53.678Z,1.75
2022-09-28T08:23:21.625Z,1.60
2022-09-28T08:25:54.423Z,1.20
2022-09-28T08:28:24.442Z,1.35
2022-09-28T08:30:55.279Z,1.53
2022-09-28T08:33:31.341Z,1.52
2022-09-28T08:36:17.284Z,1.30
2022-09-28T08:39:02.797Z,1.25
2022-09-28T08:42:39.903Z,1.20
2022-09-28T08:45:39.711Z,1.00
2022-09-28T08:49:13.448Z,1.20
2022-09-28T08:52:15.105Z,1.20
2022-09-28T08:55:16.934Z,1.42
2022-09-28T08:57:56.396Z,1.58
2022-09-28T09:00:40.074Z,1.30
2022-09-28T09:03:14.178Z,1.23
2022-09-28T09:05:49.444Z,1.60
2022-09-28T09:08:30.332Z,1.25
2022-09-28T09:11:09.148Z,1.58
2022-09-28T09:13:38.012Z,1.60
2022-09-28T09:16:15.249Z,1.30
2022-09-28T09:19:36.375Z,1.30
2022-09-28T09:22:41.322Z,1.20
2022-09-28T09:25:29.104Z,1.30
2022-09-28T09:28:32.611Z,1.20
2022-09-28T09:31:17.644Z,1.25
2022-09-28T09:34:11.657Z,1.80
2022-09-28T09:36:56.813Z,1.67
2022-09-28T09:40:03.865Z,1.60
2022-09-28T09:43:01.369Z,2.03
2022-09-28T09:45:59.295Z,1.60
2022-09-28T09:48:59.864Z,1.80
2022-09-28T09:51:46.143Z,1.25
2022-09-28T09:54:26.126Z,1.90
2022-09-28T09:57:04.020Z,1.53
2022-09-28T09:59:56.243Z,1.50
2022-09-28T10:02:31.964Z,1.85
2022-09-28T10:05:14.448Z,1.83
2022-09-28T10:08:09.487Z,1.52
2022-09-28T10:11:15.814Z,1.53
2022-09-28T10:13:50.010Z,2.28
2022-09-28T10:16:37.619Z,1.95
2022-09-28T10:19:13.590Z,1.50
2022-09-28T10:22:03.452Z,1.65
2022-09-28T10:24:45.558Z,2.03
2022-09-28T10:27:19.839Z,1.63
2022-09-28T10:30:10.227Z,1.92
2022-09-28T10:32:49.001Z,1.50
2022-09-28T10:35:19.847Z,1.67
2022-09-28T10:38:17.517Z,1.20
2022-09-28T10:40:52.177Z,1.50
2022-09-28T10:43:29.716Z,1.40
2022-09-28T10:46:15.270Z,1.38
2022-09-28T10:49:15.170Z,1.60
2022-09-28T10:51:44.485Z,1.20
2022-09-28T10:54:22.305Z,1.90
2022-09-28T10:56:53.790Z,1.50
2022-09-28T10:59:42.398Z,1.50
2022-09-28T11:02:41.263Z,1.40
2022-09-28T11:05:23.086Z,1.40
2022-09-28T11:07:56.107Z,1.50
2022-09-28T11:10:31.873Z,1.00
2022-09-28T11:13:09.998Z,1.45
2022-09-28T11:15:44.442Z,1.40
2022-09-28T11:18:32.693Z,1.50
2022-09-28T11:21:32.770Z,1.20
2022-09-28T11:24:19.134Z,1.30
2022-09-28T11:26:50.582Z,1.15
2022-09-28T11:29:43.353Z,1.13
2022-09-28T11:32:42.908Z,1.10
2022-09-28T11:35:24.218Z,1.20
2022-09-28T11:37:55.710Z,1.00
2022-09-28T11:40:51.651Z,1.23
2022-09-28T11:43:57.485Z,1.15
2022-09-28T11:46:34.487Z,1.10
2022-09-28T11:49:16.948Z,1.00
2022-09-28T11:51:46.350Z,1.30
2022-09-28T11:54:33.825Z,1.30
2022-09-28T11:57:04.732Z,1.00
2022-09-28T11:59:43.117Z,1.00
2022-09-28T12:02:23.630Z,1.25
2022-09-28T12:05:40.793Z,1.40
2022-09-28T12:08:30.361Z,1.13
2022-09-28T12:11:59.005Z,1.10
2022-09-28T12:14:48.681Z,1.00
2022-09-28T12:17:33.425Z,1.23
2022-09-28T12:20:11.528Z,1.35
2022-09-28T12:22:45.146Z,1.10
2022-09-28T12:25:19.844Z,0.90
2022-09-28T12:28:13.362Z,1.30
2022-09-28T12:30:44.434Z,1.00
2022-09-28T12:33:15.647Z,1.60
2022-09-28T12:36:20.358Z,1.30
2022-09-28T12:39:18.047Z,1.65
2022-09-28T12:41:56.723Z,1.17
2022-09-28T12:44:33.007Z,1.30
2022-09-28T12:47:15.199Z,1.08
2022-09-28T12:50:44.013Z,1.17
2022-09-28T12:53:21.033Z,1.20
2022-09-28T12:56:02.335Z,1.03
2022-09-28T12:58:40.348Z,1.40
2022-09-28T13:01:46.336Z,1.33
2022-09-28T13:04:35.396Z,1.35
2022-09-28T13:07:20.936Z,1.33
2022-09-28T13:10:35.491Z,1.30
2022-09-28T13:13:24.242Z,1.20
2022-09-28T13:16:01.995Z,1.17
2022-09-28T13:18:38.098Z,1.13
2022-09-28T13:21:34.774Z,1.13
2022-09-28T13:24:20.916Z,1.27
2022-09-28T13:26:55.157Z,1.20
2022-09-28T13:29:23.953Z,1.35
2022-09-28T13:32:01.404Z,0.93
2022-09-28T13:34:32.756Z,1.05
2022-09-28T13:37:11.519Z,1.30
2022-09-28T13:40:00.109Z,1.10
2022-09-28T13:42:52.836Z,1.10
2022-09-28T13:45:23.091Z,1.10
2022-09-28T13:48:02.456Z,1.05
2022-09-28T13:50:47.866Z,1.20
2022-09-28T13:53:34.090Z,1.25
2022-09-28T13:56:23.306Z,1.48
2022-09-28T13:59:10.228Z,1.30
2022-09-28T14:01:56.096Z,1.20
2022-09-28T14:04:43.541Z,1.37
2022-09-28T14:07:35.794Z,1.20
2022-09-28T14:10:42.010Z,1.10
2022-09-28T14:13:09.450Z,1.20
2022-09-28T14:15:43.661Z,1.00
2022-09-28T14:18:19.429Z,1.20
2022-09-28T14:21:33.329Z,1.30
2022-09-28T14:24:12.716Z,1.73
2022-09-28T14:26:56.378Z,1.10
2022-09-28T14:29:34.207Z,1.00
2022-09-28T14:32:11.104Z,1.07
2022-09-28T14:34:55.286Z,1.20
2022-09-28T14:37:45.110Z,1.00
2022-09-28T14:40:40.503Z,2.25
2022-09-28T14:43:25.897Z,2.03
2022-09-28T14:46:30.410Z,1.60
2022-09-28T14:49:04.035Z,1.20
2022-09-28T14:51:35.162Z,1.58
2022-09-28T14:54:10.878Z,0.95
2022-09-28T14:56:53.674Z,1.27
2022-09-28T14:59:27.284Z,1.30
2022-09-28T15:02:08.497Z,1.10
2022-09-28T15:04:41.726Z,1.40
2022-09-28T15:07:30.066Z,1.30
2022-09-28T15:09:58.940Z,1.52
2022-09-28T15:12:28.985Z,2.07
2022-09-28T15:15:02.594Z,1.20
2022-09-28T15:17:38.496Z,0.90
2022-09-28T15:20:30.927Z,1.15
2022-09-28T15:23:00.349Z,1.30
2022-09-28T15:25:30.080Z,1.30
2022-09-28T15:27:59.913Z,0.90
2022-09-28T15:30:32.205Z,1.02
2022-09-28T15:33:20.502Z,2.05
2022-09-28T15:36:04.344Z,1.10
2022-09-28T15:38:34.508Z,1.80
2022-09-28T15:41:07.768Z,1.55
2022-09-28T15:43:37.918Z,1.20
2022-09-28T15:46:20.105Z,1.65
2022-09-28T15:48:55.469Z,1.10
2022-09-28T15:51:25.138Z,1.10
2022-09-28T15:54:09.570Z,1.38
2022-09-28T15:57:02.819Z,1.25
2022-09-28T15:59:37.421Z,1.30
2022-09-28T16:02:10.648Z,1.00
2022-09-28T16:04:55.599Z,1.20
2022-09-28T16:07:32.443Z,1.10
2022-09-28T16:10:02.793Z,1.60
2022-09-28T16:12:41.469Z,1.13
2022-09-28T16:15:26.192Z,1.13
2022-09-28T16:18:03.495Z,1.10
2022-09-28T16:20:43.740Z,1.20
2022-09-28T16:23:17.197Z,1.30
2022-09-28T16:25:59.062Z,1.13
2022-09-28T16:28:31.400Z,1.23
2022-09-28T16:31:07.764Z,1.13
2022-09-28T16:33:52.971Z,1.20
2022-09-28T16:36:23.088Z,2.72
2022-09-28T16:38:50.831Z,2.13
2022-09-28T16:41:21.766Z,2.17
2022-09-28T16:43:50.359Z,1.70
2022-09-28T16:46:18.189Z,1.40
2022-09-28T16:48:50.921Z,1.77
2022-09-28T16:51:20.215Z,1.58
2022-09-28T16:54:06.422Z,2.30
2022-09-28T16:56:35.602Z,2.20
2022-09-28T16:59:04.779Z,2.55
2022-09-28T17:01:32.247Z,2.40
2022-09-28T17:03:59.629Z,1.88
2022-09-28T17:06:27.703Z,1.85
2022-09-28T17:08:56.914Z,2.00
2022-09-28T17:11:25.186Z,2.03
2022-09-28T17:13:57.047Z,2.10
2022-09-28T17:16:49.757Z,2.20
2022-09-28T17:19:23.682Z,2.75
2022-09-28T17:21:52.666Z,2.70
2022-09-28T17:24:20.796Z,2.20
2022-09-28T17:26:51.240Z,2.35
2022-09-28T17:29:19.236Z,2.22
2022-09-28T17:31:47.571Z,2.33
2022-09-28T17:34:16.588Z,2.40
2022-09-28T17:36:45.119Z,2.63
2022-09-28T17:39:17.447Z,3.05
2022-09-28T17:41:46.074Z,2.50
2022-09-28T17:44:16.618Z,2.53
2022-09-28T17:46:46.537Z,2.30
2022-09-28T17:49:14.269Z,2.03
2022-09-28T17:51:42.630Z,1.95
2022-09-28T17:54:09.982Z,2.90
2022-09-28T17:56:37.928Z,2.72
2022-09-28T17:59:07.983Z,2.20
2022-09-28T18:01:39.228Z,2.45
2022-09-28T18:04:09.056Z,2.70
2022-09-28T18:06:40.071Z,2.10
2022-09-28T18:09:09.026Z,1.88
2022-09-28T18:11:42.716Z,1.60
2022-09-28T18:14:11.439Z,1.90
2022-09-28T18:16:39.207Z,1.67
2022-09-28T18:19:06.629Z,1.50
2022-09-28T18:21:34.240Z,1.90
2022-09-28T18:24:01.747Z,1.67
2022-09-28T18:26:29.455Z,1.30
2022-09-28T18:28:56.860Z,1.55
2022-09-28T18:31:24.345Z,1.98
2022-09-28T18:33:57.005Z,1.42
2022-09-28T18:36:29.541Z,1.27
2022-09-28T18:38:57.678Z,1.25
2022-09-28T18:41:25.186Z,1.30
2022-09-28T18:43:52.741Z,1.60
2022-09-28T18:46:20.625Z,1.27
2022-09-28T18:48:49.333Z,1.47
2022-09-28T18:51:16.745Z,1.08
2022-09-28T18:53:44.353Z,1.33
2022-09-28T18:56:15.365Z,1.30
2022-09-28T18:58:43.613Z,1.13
2022-09-28T19:01:30.125Z,1.23
2022-09-28T19:04:07.282Z,1.20
2022-09-28T19:06:37.297Z,1.23
2022-09-28T19:09:04.825Z,1.00
2022-09-28T19:11:32.507Z,1.13
2022-09-28T19:14:00.001Z,1.20
2022-09-28T19:16:29.634Z,1.20
2022-09-28T19:18:58.693Z,1.25
2022-09-28T19:21:27.209Z,1.27
2022-09-28T19:23:55.761Z,1.27
2022-09-28T19:26:28.678Z,1.47
2022-09-28T19:28:58.341Z,1.17
2022-09-28T19:31:28.040Z,1.27
2022-09-28T19:33:56.013Z,1.58
2022-09-28T19:36:28.226Z,1.27
2022-09-28T19:38:58.620Z,1.40
2022-09-28T19:41:43.795Z,1.25
2022-09-28T19:44:15.901Z,1.40
2022-09-28T19:46:46.018Z,1.65
2022-09-28T19:49:19.642Z,1.55
2022-09-28T19:52:13.932Z,1.30
2022-09-28T19:54:39.666Z,2.08
2022-09-28T19:57:10.777Z,1.30
2022-09-28T19:59:38.742Z,1.20
2022-09-28T20:02:08.744Z,1.40
2022-09-28T20:04:37.737Z,1.43
2022-09-28T20:07:13.849Z,1.55
2022-09-28T20:09:42.311Z,1.27
2022-09-28T20:12:09.838Z,1.40
2022-09-28T20:14:39.650Z,1.27
2022-09-28T20:17:17.833Z,1.23
2022-09-28T20:19:45.196Z,1.83
2022-09-28T20:22:16.434Z,1.20
2022-09-28T20:24:45.401Z,1.30
2022-09-28T20:27:13.119Z,1.20
2022-09-28T20:29:46.280Z,1.60
2022-09-28T20:32:15.096Z,1.33
2022-09-28T20:34:42.682Z,1.50
2022-09-28T20:37:10.008Z,1.58
2022-09-28T20:39:40.356Z,1.58
2022-09-28T20:42:10.200Z,1.70
2022-09-28T20:44:37.566Z,1.67
2022-09-28T20:47:08.429Z,2.15
2022-09-28T20:49:35.870Z,2.30
2022-09-28T20:52:03.338Z,1.92
2022-09-28T20:54:32.492Z,1.60
2022-09-28T20:56:59.773Z,1.60
2022-09-28T20:59:28.287Z,1.85
2022-09-28T21:01:55.891Z,2.10
2022-09-28T21:04:23.524Z,1.90
2022-09-28T21:06:50.923Z,1.70
2022-09-28T21:09:18.428Z,2.45
2022-09-28T21:11:46.645Z,1.67
2022-09-28T21:14:13.907Z,1.90
2022-09-28T21:16:41.342Z,2.00
2022-09-28T21:19:08.912Z,1.97
2022-09-28T21:21:36.589Z,1.55
2022-09-28T21:24:04.230Z,1.77
2022-09-28T21:26:32.503Z,1.50
2022-09-28T21:29:01.039Z,1.70
2022-09-28T21:31:32.839Z,1.40
2022-09-28T21:34:01.158Z,1.85
2022-09-28T21:36:28.961Z,1.50
2022-09-28T21:38:56.326Z,1.77
2022-09-28T21:41:25.365Z,1.70
2022-09-28T21:43:52.930Z,1.70
2022-09-28T21:46:20.529Z,1.50
2022-09-28T21:48:52.951Z,1.58
2022-09-28T21:51:20.325Z,1.80
2022-09-28T21:53:49.448Z,2.13
2022-09-28T21:56:17.052Z,1.90
2022-09-28T21:58:44.385Z,1.98
2022-09-28T22:01:18.362Z,1.83
2022-09-28T22:03:48.746Z,2.67
2022-09-28T22:06:18.105Z,1.98
2022-09-28T22:08:47.569Z,2.00
2022-09-28T22:11:15.934Z,1.98
2022-09-28T22:13:45.956Z,1.90
2022-09-28T22:16:14.803Z,1.70
2022-09-28T22:18:42.504Z,1.63
2022-09-28T22:21:21.712Z,1.60
2022-09-28T22:23:50.105Z,1.70
2022-09-28T22:26:21.871Z,1.67
2022-09-28T22:28:57.893Z,1.52
2022-09-28T22:31:34.671Z,1.90
2022-09-28T22:34:02.728Z,1.67
2022-09-28T22:36:30.482Z,1.50
2022-09-28T22:38:59.031Z,1.52
2022-09-28T22:41:26.702Z,1.52
2022-09-28T22:43:54.946Z,1.70
2022-09-28T22:46:27.728Z,1.90
2022-09-28T22:48:57.988Z,1.70
2022-09-28T22:51:27.204Z,2.10
2022-09-28T22:53:55.130Z,1.67
2022-09-28T22:56:22.663Z,1.90
2022-09-28T22:58:50.146Z,1.83
2022-09-28T23:01:29.668Z,1.90
2022-09-28T23:03:58.209Z,1.42
2022-09-28T23:06:27.469Z,2.22
2022-09-28T23:08:54.930Z,1.85
2022-09-28T23:11:22.995Z,1.50
2022-09-28T23:13:51.685Z,1.98
2022-09-28T23:16:20.104Z,2.28
2022-09-28T23:18:49.453Z,2.30
2022-09-28T23:21:19.576Z,2.08
2022-09-28T23:23:51.020Z,2.20
2022-09-28T23:26:21.787Z,1.70
2022-09-28T23:28:49.257Z,2.00
2022-09-28T23:31:25.365Z,1.63
2022-09-28T23:33:58.715Z,2.10
2022-09-28T23:36:26.459Z,2.30
2022-09-28T23:38:54.002Z,2.10
2022-09-28T23:41:21.372Z,2.13
2022-09-28T23:43:48.970Z,2.50
2022-09-28T23:46:20.707Z,2.40
2022-09-28T23:48:49.497Z,2.37
2022-09-28T23:51:17.170Z,2.30
2022-09-28T23:53:44.653Z,2.53
2022-09-28T23:56:12.439Z,2.50
2022-09-28T23:58:39.948Z,2.50
